CYYH

Taloyoak Airport

Taloyoak, Canada
METAR CYYH 180200Z 18002KT 15SM IC OVC085 M25/M28 A2951 RMK AC8 WND ESTD SLP998
Observed Flight Rules
Dec-18 @ 02:00 UTC (an hour ago) Visual Flight Rules
Wind Visibility Clouds Conditions
180° at 2 knots 15 miles
  • Overcast at 8,500' AGL
  • Ice crystals
Temperatures Readings
Current -25°C / -13°F
Dewpoint -28°C / -18°F
Humidity 76%
Altimeter 29.51" Hg
Pressure 999.8 hPa
Elevation 28
METAR CYYH 180200Z 18002KT 15SM IC OVC085 M25/M28 A2951 RMK AC8 WND ESTD SLP998
Observed Flight Rules
Dec-18 @ 02:00 UTC
(an hour ago)
VFR
Wind Visibility
180° at 2 knots 15 miles
Clouds
  • Overcast at 8,500' AGL
Conditions
  • Ice crystals
Temperature Dewpoint
-25°C / -13°F -28°C / -18°F
Humidity Altimeter Pressure
76% 29.51" Hg 999.8 hPa